sensor_id;sensor_type;location;lat;lon;timestamp;P1;durP1;ratioP1;P2;durP2;ratioP2
43678;SDS011;29279;50.858;4.392;2023-05-01T00:00:06;9.20;;;2.55;;
43678;SDS011;29279;50.858;4.392;2023-05-01T00:02:34;6.60;;;2.75;;
43678;SDS011;29279;50.858;4.392;2023-05-01T00:05:00;5.63;;;2.50;;
43678;SDS011;29279;50.858;4.392;2023-05-01T00:07:26;6.65;;;2.83;;
43678;SDS011;29279;50.858;4.392;2023-05-01T00:09:54;6.15;;;2.85;;
43678;SDS011;29279;50.858;4.392;2023-05-01T00:12:23;7.97;;;2.42;;
43678;SDS011;29279;50.858;4.392;2023-05-01T00:14:49;4.80;;;2.67;;
43678;SDS011;29279;50.858;4.392;2023-05-01T00:17:15;4.60;;;2.33;;
43678;SDS011;29279;50.858;4.392;2023-05-01T00:19:41;5.32;;;2.22;;
43678;SDS011;29279;50.858;4.392;2023-05-01T00:22:08;6.50;;;2.30;;
43678;SDS011;29279;50.858;4.392;2023-05-01T00:24:33;5.38;;;2.05;;
43678;SDS011;29279;50.858;4.392;2023-05-01T00:26:59;7.85;;;2.38;;
43678;SDS011;29279;50.858;4.392;2023-05-01T00:29:25;4.88;;;2.00;;
43678;SDS011;29279;50.858;4.392;2023-05-01T00:31:50;6.63;;;2.83;;
43678;SDS011;29279;50.858;4.392;2023-05-01T00:34:17;7.65;;;2.88;;
43678;SDS011;29279;50.858;4.392;2023-05-01T00:36:42;6.60;;;2.40;;
43678;SDS011;29279;50.858;4.392;2023-05-01T00:39:08;10.00;;;2.75;;
43678;SDS011;29279;50.858;4.392;2023-05-01T00:41:34;4.35;;;2.40;;
43678;SDS011;29279;50.858;4.392;2023-05-01T00:44:00;5.38;;;2.58;;
43678;SDS011;29279;50.858;4.392;2023-05-01T00:46:29;4.55;;;2.63;;
43678;SDS011;29279;50.858;4.392;2023-05-01T00:48:56;6.35;;;2.67;;
43678;SDS011;29279;50.858;4.392;2023-05-01T00:51:22;8.65;;;2.90;;
43678;SDS011;29279;50.858;4.392;2023-05-01T00:53:51;4.43;;;2.20;;
43678;SDS011;29279;50.858;4.392;2023-05-01T00:56:17;4.38;;;2.53;;
43678;SDS011;29279;50.858;4.392;2023-05-01T00:58:44;6.75;;;2.72;;
43678;SDS011;29279;50.858;4.392;2023-05-01T01:01:13;7.40;;;2.70;;
43678;SDS011;29279;50.858;4.392;2023-05-01T01:03:40;4.53;;;2.25;;
43678;SDS011;29279;50.858;4.392;2023-05-01T01:06:27;6.18;;;2.30;;
43678;SDS011;29279;50.858;4.392;2023-05-01T01:14:54;5.63;;;2.50;;
43678;SDS011;29279;50.858;4.392;2023-05-01T01:17:31;7.72;;;2.53;;
43678;SDS011;29279;50.858;4.392;2023-05-01T01:20:16;4.43;;;2.80;;
43678;SDS011;29279;50.858;4.392;2023-05-01T01:25:54;6.85;;;2.95;;
43678;SDS011;29279;50.858;4.392;2023-05-01T01:31:16;6.65;;;2.40;;
43678;SDS011;29279;50.858;4.392;2023-05-01T01:36:56;6.57;;;2.28;;
43678;SDS011;29279;50.858;4.392;2023-05-01T01:39:51;5.20;;;2.55;;
43678;SDS011;29279;50.858;4.392;2023-05-01T01:42:20;5.40;;;2.45;;
43678;SDS011;29279;50.858;4.392;2023-05-01T01:44:59;4.93;;;2.60;;
43678;SDS011;29279;50.858;4.392;2023-05-01T01:47:34;6.90;;;2.47;;
43678;SDS011;29279;50.858;4.392;2023-05-01T01:50:03;6.03;;;2.60;;
43678;SDS011;29279;50.858;4.392;2023-05-01T01:52:32;6.65;;;2.60;;
43678;SDS011;29279;50.858;4.392;2023-05-01T01:55:10;6.78;;;2.60;;
43678;SDS011;29279;50.858;4.392;2023-05-01T01:57:38;5.38;;;2.33;;
43678;SDS011;29279;50.858;4.392;2023-05-01T02:00:08;7.72;;;2.40;;
43678;SDS011;29279;50.858;4.392;2023-05-01T02:02:38;7.45;;;2.50;;
43678;SDS011;29279;50.858;4.392;2023-05-01T02:05:08;5.57;;;2.58;;
43678;SDS011;29279;50.858;4.392;2023-05-01T02:07:38;5.63;;;2.45;;
43678;SDS011;29279;50.858;4.392;2023-05-01T02:10:06;6.72;;;2.92;;
43678;SDS011;29279;50.858;4.392;2023-05-01T02:12:34;3.67;;;2.45;;
43678;SDS011;29279;50.858;4.392;2023-05-01T02:15:00;9.25;;;2.38;;
43678;SDS011;29279;50.858;4.392;2023-05-01T02:17:27;7.70;;;3.05;;
43678;SDS011;29279;50.858;4.392;2023-05-01T02:19:54;6.20;;;2.60;;
43678;SDS011;29279;50.858;4.392;2023-05-01T02:22:21;6.65;;;2.75;;
43678;SDS011;29279;50.858;4.392;2023-05-01T02:24:49;5.97;;;2.92;;
43678;SDS011;29279;50.858;4.392;2023-05-01T02:28:01;5.55;;;2.50;;
43678;SDS011;29279;50.858;4.392;2023-05-01T02:30:24;4.00;;;2.40;;
43678;SDS011;29279;50.858;4.392;2023-05-01T02:32:50;4.90;;;2.95;;
43678;SDS011;29279;50.858;4.392;2023-05-01T02:35:16;7.63;;;3.28;;
43678;SDS011;29279;50.858;4.392;2023-05-01T02:37:42;6.15;;;2.83;;
43678;SDS011;29279;50.858;4.392;2023-05-01T02:40:09;6.60;;;3.00;;
43678;SDS011;29279;50.858;4.392;2023-05-01T02:42:36;8.38;;;3.30;;
43678;SDS011;29279;50.858;4.392;2023-05-01T02:45:04;8.13;;;3.83;;
43678;SDS011;29279;50.858;4.392;2023-05-01T02:47:33;7.50;;;3.50;;
43678;SDS011;29279;50.858;4.392;2023-05-01T02:50:02;5.15;;;3.00;;
43678;SDS011;29279;50.858;4.392;2023-05-01T02:52:29;6.93;;;3.08;;
43678;SDS011;29279;50.858;4.392;2023-05-01T02:54:56;6.43;;;3.25;;
43678;SDS011;29279;50.858;4.392;2023-05-01T02:57:22;7.50;;;3.53;;
43678;SDS011;29279;50.858;4.392;2023-05-01T02:59:47;9.82;;;4.47;;
43678;SDS011;29279;50.858;4.392;2023-05-01T03:02:13;7.45;;;4.25;;
43678;SDS011;29279;50.858;4.392;2023-05-01T03:04:40;10.40;;;3.53;;
43678;SDS011;29279;50.858;4.392;2023-05-01T03:07:06;6.53;;;3.05;;
43678;SDS011;29279;50.858;4.392;2023-05-01T03:09:32;6.47;;;2.55;;
43678;SDS011;29279;50.858;4.392;2023-05-01T03:11:57;7.18;;;3.60;;
43678;SDS011;29279;50.858;4.392;2023-05-01T03:14:23;7.70;;;3.22;;
43678;SDS011;29279;50.858;4.392;2023-05-01T03:16:49;7.40;;;2.60;;
43678;SDS011;29279;50.858;4.392;2023-05-01T03:19:15;3.92;;;2.55;;
43678;SDS011;29279;50.858;4.392;2023-05-01T03:21:40;8.27;;;3.13;;
43678;SDS011;29279;50.858;4.392;2023-05-01T03:24:06;5.55;;;3.03;;
43678;SDS011;29279;50.858;4.392;2023-05-01T03:26:32;9.80;;;3.58;;
43678;SDS011;29279;50.858;4.392;2023-05-01T03:28:58;7.80;;;3.22;;
43678;SDS011;29279;50.858;4.392;2023-05-01T03:31:23;8.85;;;3.28;;
43678;SDS011;29279;50.858;4.392;2023-05-01T03:33:49;7.30;;;3.53;;
43678;SDS011;29279;50.858;4.392;2023-05-01T03:36:15;5.43;;;3.58;;
43678;SDS011;29279;50.858;4.392;2023-05-01T03:38:41;11.32;;;3.83;;
43678;SDS011;29279;50.858;4.392;2023-05-01T03:41:07;10.15;;;3.30;;
43678;SDS011;29279;50.858;4.392;2023-05-01T03:43:33;4.95;;;3.30;;
43678;SDS011;29279;50.858;4.392;2023-05-01T03:45:58;8.75;;;3.83;;
43678;SDS011;29279;50.858;4.392;2023-05-01T03:48:24;11.32;;;3.55;;
43678;SDS011;29279;50.858;4.392;2023-05-01T03:50:50;6.47;;;3.80;;
43678;SDS011;29279;50.858;4.392;2023-05-01T03:53:17;7.78;;;3.50;;
43678;SDS011;29279;50.858;4.392;2023-05-01T03:55:42;7.47;;;3.38;;
43678;SDS011;29279;50.858;4.392;2023-05-01T03:58:08;7.25;;;3.53;;
43678;SDS011;29279;50.858;4.392;2023-05-01T04:00:35;7.85;;;3.05;;
43678;SDS011;29279;50.858;4.392;2023-05-01T04:03:02;9.48;;;4.18;;
43678;SDS011;29279;50.858;4.392;2023-05-01T04:05:28;7.97;;;4.03;;
43678;SDS011;29279;50.858;4.392;2023-05-01T04:07:54;6.90;;;3.38;;
43678;SDS011;29279;50.858;4.392;2023-05-01T04:10:20;14.52;;;3.42;;
43678;SDS011;29279;50.858;4.392;2023-05-01T04:12:45;11.93;;;3.95;;
43678;SDS011;29279;50.858;4.392;2023-05-01T04:15:11;11.90;;;4.18;;
43678;SDS011;29279;50.858;4.392;2023-05-01T04:17:37;6.90;;;3.85;;
43678;SDS011;29279;50.858;4.392;2023-05-01T04:20:03;12.00;;;3.25;;
43678;SDS011;29279;50.858;4.392;2023-05-01T04:22:30;9.00;;;4.03;;
43678;SDS011;29279;50.858;4.392;2023-05-01T04:24:56;6.90;;;3.60;;
43678;SDS011;29279;50.858;4.392;2023-05-01T04:27:22;8.50;;;3.60;;
43678;SDS011;29279;50.858;4.392;2023-05-01T04:29:48;12.57;;;4.85;;
43678;SDS011;29279;50.858;4.392;2023-05-01T04:32:14;11.15;;;4.13;;
43678;SDS011;29279;50.858;4.392;2023-05-01T04:34:41;10.80;;;3.72;;
43678;SDS011;29279;50.858;4.392;2023-05-01T04:37:08;11.82;;;3.90;;
43678;SDS011;29279;50.858;4.392;2023-05-01T04:39:34;7.38;;;3.95;;
43678;SDS011;29279;50.858;4.392;2023-05-01T04:42:00;8.48;;;4.03;;
43678;SDS011;29279;50.858;4.392;2023-05-01T04:44:27;8.38;;;4.10;;
43678;SDS011;29279;50.858;4.392;2023-05-01T04:46:53;8.95;;;4.47;;
43678;SDS011;29279;50.858;4.392;2023-05-01T04:49:20;9.75;;;3.85;;
43678;SDS011;29279;50.858;4.392;2023-05-01T04:51:46;11.27;;;4.00;;
43678;SDS011;29279;50.858;4.392;2023-05-01T04:54:12;10.45;;;4.20;;
43678;SDS011;29279;50.858;4.392;2023-05-01T04:56:38;8.63;;;3.92;;
43678;SDS011;29279;50.858;4.392;2023-05-01T04:59:03;9.43;;;4.55;;
43678;SDS011;29279;50.858;4.392;2023-05-01T05:01:29;12.98;;;4.70;;
43678;SDS011;29279;50.858;4.392;2023-05-01T05:03:55;8.27;;;4.00;;
43678;SDS011;29279;50.858;4.392;2023-05-01T05:06:20;19.60;;;4.60;;
43678;SDS011;29279;50.858;4.392;2023-05-01T05:08:46;17.00;;;4.55;;
43678;SDS011;29279;50.858;4.392;2023-05-01T05:11:15;8.70;;;4.65;;
43678;SDS011;29279;50.858;4.392;2023-05-01T05:13:42;11.13;;;4.70;;
43678;SDS011;29279;50.858;4.392;2023-05-01T05:16:08;13.18;;;4.55;;
43678;SDS011;29279;50.858;4.392;2023-05-01T05:18:34;16.55;;;4.15;;
43678;SDS011;29279;50.858;4.392;2023-05-01T05:21:03;9.00;;;4.45;;
43678;SDS011;29279;50.858;4.392;2023-05-01T05:23:29;7.00;;;4.07;;
43678;SDS011;29279;50.858;4.392;2023-05-01T05:25:55;8.73;;;3.75;;
43678;SDS011;29279;50.858;4.392;2023-05-01T05:28:25;9.15;;;3.92;;
43678;SDS011;29279;50.858;4.392;2023-05-01T05:30:52;8.38;;;4.30;;
43678;SDS011;29279;50.858;4.392;2023-05-01T05:33:18;11.00;;;4.40;;
43678;SDS011;29279;50.858;4.392;2023-05-01T05:35:43;9.45;;;3.85;;
43678;SDS011;29279;50.858;4.392;2023-05-01T05:38:09;14.73;;;4.50;;
43678;SDS011;29279;50.858;4.392;2023-05-01T05:40:35;11.13;;;4.20;;
43678;SDS011;29279;50.858;4.392;2023-05-01T05:43:01;11.50;;;4.30;;
43678;SDS011;29279;50.858;4.392;2023-05-01T05:45:27;9.30;;;4.68;;
43678;SDS011;29279;50.858;4.392;2023-05-01T05:47:53;10.05;;;4.38;;
43678;SDS011;29279;50.858;4.392;2023-05-01T05:50:18;7.45;;;4.32;;
43678;SDS011;29279;50.858;4.392;2023-05-01T05:52:44;7.43;;;4.25;;
43678;SDS011;29279;50.858;4.392;2023-05-01T05:55:10;9.35;;;4.15;;
43678;SDS011;29279;50.858;4.392;2023-05-01T05:57:35;8.27;;;3.85;;
43678;SDS011;29279;50.858;4.392;2023-05-01T06:00:02;11.38;;;4.43;;
43678;SDS011;29279;50.858;4.392;2023-05-01T06:02:29;10.10;;;4.35;;
43678;SDS011;29279;50.858;4.392;2023-05-01T06:04:56;6.47;;;4.15;;
43678;SDS011;29279;50.858;4.392;2023-05-01T06:07:22;8.32;;;4.53;;
43678;SDS011;29279;50.858;4.392;2023-05-01T06:09:49;11.35;;;4.75;;
43678;SDS011;29279;50.858;4.392;2023-05-01T06:12:15;8.90;;;4.88;;
43678;SDS011;29279;50.858;4.392;2023-05-01T06:14:40;10.20;;;4.25;;
43678;SDS011;29279;50.858;4.392;2023-05-01T06:17:06;9.75;;;4.10;;
43678;SDS011;29279;50.858;4.392;2023-05-01T06:19:33;9.05;;;4.90;;
43678;SDS011;29279;50.858;4.392;2023-05-01T06:21:59;6.93;;;4.47;;
43678;SDS011;29279;50.858;4.392;2023-05-01T06:24:25;9.85;;;5.53;;
43678;SDS011;29279;50.858;4.392;2023-05-01T06:26:52;8.50;;;5.07;;
43678;SDS011;29279;50.858;4.392;2023-05-01T06:29:18;11.77;;;5.18;;
43678;SDS011;29279;50.858;4.392;2023-05-01T06:31:43;7.55;;;5.25;;
43678;SDS011;29279;50.858;4.392;2023-05-01T06:34:09;9.57;;;5.07;;
43678;SDS011;29279;50.858;4.392;2023-05-01T06:36:35;9.73;;;5.40;;
43678;SDS011;29279;50.858;4.392;2023-05-01T06:39:01;7.38;;;5.10;;
43678;SDS011;29279;50.858;4.392;2023-05-01T06:41:27;10.20;;;5.85;;
43678;SDS011;29279;50.858;4.392;2023-05-01T06:43:53;11.50;;;7.43;;
43678;SDS011;29279;50.858;4.392;2023-05-01T06:46:18;14.25;;;7.30;;
43678;SDS011;29279;50.858;4.392;2023-05-01T06:48:44;17.42;;;8.70;;
43678;SDS011;29279;50.858;4.392;2023-05-01T06:51:10;15.73;;;9.30;;
43678;SDS011;29279;50.858;4.392;2023-05-01T06:53:38;14.20;;;10.25;;
43678;SDS011;29279;50.858;4.392;2023-05-01T06:56:05;19.65;;;9.77;;
43678;SDS011;29279;50.858;4.392;2023-05-01T06:58:31;15.38;;;10.25;;
43678;SDS011;29279;50.858;4.392;2023-05-01T07:00:57;17.48;;;11.88;;
43678;SDS011;29279;50.858;4.392;2023-05-01T07:03:23;19.92;;;14.25;;
43678;SDS011;29279;50.858;4.392;2023-05-01T07:05:51;22.30;;;15.00;;
43678;SDS011;29279;50.858;4.392;2023-05-01T07:08:17;21.17;;;16.25;;
43678;SDS011;29279;50.858;4.392;2023-05-01T07:10:43;24.38;;;17.38;;
43678;SDS011;29279;50.858;4.392;2023-05-01T07:13:09;28.80;;;19.23;;
43678;SDS011;29279;50.858;4.392;2023-05-01T07:15:35;27.25;;;19.92;;
43678;SDS011;29279;50.858;4.392;2023-05-01T07:18:01;33.60;;;20.95;;
43678;SDS011;29279;50.858;4.392;2023-05-01T07:20:29;29.35;;;20.77;;
43678;SDS011;29279;50.858;4.392;2023-05-01T07:22:58;26.88;;;20.63;;
43678;SDS011;29279;50.858;4.392;2023-05-01T07:25:24;24.65;;;19.38;;
43678;SDS011;29279;50.858;4.392;2023-05-01T07:27:50;29.52;;;20.60;;
43678;SDS011;29279;50.858;4.392;2023-05-01T07:30:16;33.00;;;20.95;;
43678;SDS011;29279;50.858;4.392;2023-05-01T07:32:42;27.83;;;21.17;;
43678;SDS011;29279;50.858;4.392;2023-05-01T07:35:07;31.85;;;22.35;;
43678;SDS011;29279;50.858;4.392;2023-05-01T07:37:33;29.13;;;20.58;;
43678;SDS011;29279;50.858;4.392;2023-05-01T07:39:59;34.72;;;21.08;;
43678;SDS011;29279;50.858;4.392;2023-05-01T07:42:25;32.47;;;21.00;;
43678;SDS011;29279;50.858;4.392;2023-05-01T07:44:51;31.75;;;21.35;;
43678;SDS011;29279;50.858;4.392;2023-05-01T07:47:17;28.08;;;20.33;;
43678;SDS011;29279;50.858;4.392;2023-05-01T07:49:43;26.27;;;20.95;;
43678;SDS011;29279;50.858;4.392;2023-05-01T07:52:09;26.92;;;21.30;;
43678;SDS011;29279;50.858;4.392;2023-05-01T07:54:35;30.92;;;22.23;;
43678;SDS011;29279;50.858;4.392;2023-05-01T07:57:01;30.17;;;22.38;;
43678;SDS011;29279;50.858;4.392;2023-05-01T07:59:27;31.23;;;23.98;;
43678;SDS011;29279;50.858;4.392;2023-05-01T08:01:53;32.33;;;23.77;;
43678;SDS011;29279;50.858;4.392;2023-05-01T08:04:19;31.52;;;23.80;;
43678;SDS011;29279;50.858;4.392;2023-05-01T08:06:46;32.10;;;23.45;;
43678;SDS011;29279;50.858;4.392;2023-05-01T08:09:15;36.22;;;24.40;;
43678;SDS011;29279;50.858;4.392;2023-05-01T08:11:41;32.80;;;24.27;;
43678;SDS011;29279;50.858;4.392;2023-05-01T08:14:07;33.05;;;22.67;;
43678;SDS011;29279;50.858;4.392;2023-05-01T08:16:36;28.30;;;22.58;;
43678;SDS011;29279;50.858;4.392;2023-05-01T08:19:01;31.73;;;23.42;;
43678;SDS011;29279;50.858;4.392;2023-05-01T08:21:28;35.47;;;23.90;;
43678;SDS011;29279;50.858;4.392;2023-05-01T08:23:54;35.15;;;24.73;;
43678;SDS011;29279;50.858;4.392;2023-05-01T08:26:23;35.53;;;24.83;;
43678;SDS011;29279;50.858;4.392;2023-05-01T08:28:48;33.85;;;24.45;;
43678;SDS011;29279;50.858;4.392;2023-05-01T08:31:14;31.55;;;24.02;;
43678;SDS011;29279;50.858;4.392;2023-05-01T08:33:40;38.45;;;27.23;;
43678;SDS011;29279;50.858;4.392;2023-05-01T08:36:07;36.78;;;27.02;;
43678;SDS011;29279;50.858;4.392;2023-05-01T08:38:34;35.13;;;27.63;;
43678;SDS011;29279;50.858;4.392;2023-05-01T08:41:00;41.65;;;26.85;;
43678;SDS011;29279;50.858;4.392;2023-05-01T08:43:29;41.13;;;28.15;;
43678;SDS011;29279;50.858;4.392;2023-05-01T08:45:57;39.00;;;28.08;;
43678;SDS011;29279;50.858;4.392;2023-05-01T08:48:25;41.25;;;29.60;;
43678;SDS011;29279;50.858;4.392;2023-05-01T08:50:53;40.60;;;29.73;;
43678;SDS011;29279;50.858;4.392;2023-05-01T08:53:24;39.38;;;29.00;;
43678;SDS011;29279;50.858;4.392;2023-05-01T08:55:50;40.80;;;31.30;;
43678;SDS011;29279;50.858;4.392;2023-05-01T08:58:18;42.13;;;31.75;;
43678;SDS011;29279;50.858;4.392;2023-05-01T09:00:45;43.38;;;32.00;;
43678;SDS011;29279;50.858;4.392;2023-05-01T09:03:11;42.25;;;31.13;;
43678;SDS011;29279;50.858;4.392;2023-05-01T09:05:41;41.30;;;31.05;;
43678;SDS011;29279;50.858;4.392;2023-05-01T09:08:07;44.58;;;31.15;;
43678;SDS011;29279;50.858;4.392;2023-05-01T09:10:38;46.13;;;30.48;;
43678;SDS011;29279;50.858;4.392;2023-05-01T09:13:08;44.50;;;32.60;;
43678;SDS011;29279;50.858;4.392;2023-05-01T09:15:34;42.50;;;32.40;;
43678;SDS011;29279;50.858;4.392;2023-05-01T09:18:00;51.08;;;33.42;;
43678;SDS011;29279;50.858;4.392;2023-05-01T09:20:26;48.67;;;34.20;;
43678;SDS011;29279;50.858;4.392;2023-05-01T09:22:54;50.28;;;34.55;;
43678;SDS011;29279;50.858;4.392;2023-05-01T09:25:21;46.33;;;34.30;;
43678;SDS011;29279;50.858;4.392;2023-05-01T09:27:47;47.75;;;34.97;;
43678;SDS011;29279;50.858;4.392;2023-05-01T09:30:46;59.08;;;35.25;;
43678;SDS011;29279;50.858;4.392;2023-05-01T09:33:06;47.50;;;34.75;;
43678;SDS011;29279;50.858;4.392;2023-05-01T09:35:37;48.85;;;34.65;;
43678;SDS011;29279;50.858;4.392;2023-05-01T09:38:26;44.45;;;33.53;;
43678;SDS011;29279;50.858;4.392;2023-05-01T09:40:53;48.30;;;34.88;;
43678;SDS011;29279;50.858;4.392;2023-05-01T09:43:27;53.83;;;37.35;;
43678;SDS011;29279;50.858;4.392;2023-05-01T09:48:34;53.58;;;35.67;;
43678;SDS011;29279;50.858;4.392;2023-05-01T09:51:08;51.65;;;35.78;;
43678;SDS011;29279;50.858;4.392;2023-05-01T09:53:45;48.60;;;35.33;;
43678;SDS011;29279;50.858;4.392;2023-05-01T09:56:11;47.78;;;35.28;;
43678;SDS011;29279;50.858;4.392;2023-05-01T09:58:38;46.33;;;33.22;;
43678;SDS011;29279;50.858;4.392;2023-05-01T10:01:04;46.67;;;34.13;;
43678;SDS011;29279;50.858;4.392;2023-05-01T10:03:31;44.83;;;32.67;;
43678;SDS011;29279;50.858;4.392;2023-05-01T10:05:58;43.60;;;30.83;;
43678;SDS011;29279;50.858;4.392;2023-05-01T10:08:29;44.28;;;32.35;;
43678;SDS011;29279;50.858;4.392;2023-05-01T10:11:11;40.97;;;29.20;;
43678;SDS011;29279;50.858;4.392;2023-05-01T10:13:38;41.67;;;28.63;;
43678;SDS011;29279;50.858;4.392;2023-05-01T10:16:04;40.10;;;27.25;;
43678;SDS011;29279;50.858;4.392;2023-05-01T10:18:35;45.58;;;30.77;;
43678;SDS011;29279;50.858;4.392;2023-05-01T10:21:04;44.78;;;31.08;;
43678;SDS011;29279;50.858;4.392;2023-05-01T10:23:31;39.10;;;29.45;;
43678;SDS011;29279;50.858;4.392;2023-05-01T10:25:57;45.83;;;32.65;;
43678;SDS011;29279;50.858;4.392;2023-05-01T10:28:26;36.42;;;29.10;;
43678;SDS011;29279;50.858;4.392;2023-05-01T10:30:53;39.25;;;28.23;;
43678;SDS011;29279;50.858;4.392;2023-05-01T10:33:21;36.10;;;27.38;;
43678;SDS011;29279;50.858;4.392;2023-05-01T10:35:48;38.65;;;26.73;;
43678;SDS011;29279;50.858;4.392;2023-05-01T10:38:22;41.63;;;28.20;;
43678;SDS011;29279;50.858;4.392;2023-05-01T10:40:54;34.83;;;27.35;;
43678;SDS011;29279;50.858;4.392;2023-05-01T10:43:24;38.22;;;28.25;;
43678;SDS011;29279;50.858;4.392;2023-05-01T10:46:39;32.70;;;25.02;;
43678;SDS011;29279;50.858;4.392;2023-05-01T10:51:17;37.03;;;27.20;;
43678;SDS011;29279;50.858;4.392;2023-05-01T10:53:48;40.17;;;28.75;;
43678;SDS011;29279;50.858;4.392;2023-05-01T10:59:01;46.22;;;30.30;;
43678;SDS011;29279;50.858;4.392;2023-05-01T11:01:29;35.95;;;26.60;;
43678;SDS011;29279;50.858;4.392;2023-05-01T11:04:45;45.97;;;33.08;;
43678;SDS011;29279;50.858;4.392;2023-05-01T11:09:45;41.70;;;29.55;;
43678;SDS011;29279;50.858;4.392;2023-05-01T11:15:09;35.75;;;26.52;;
43678;SDS011;29279;50.858;4.392;2023-05-01T11:20:04;29.08;;;23.45;;
43678;SDS011;29279;50.858;4.392;2023-05-01T11:22:38;31.55;;;24.13;;
43678;SDS011;29279;50.858;4.392;2023-05-01T11:25:16;28.15;;;20.13;;
43678;SDS011;29279;50.858;4.392;2023-05-01T11:27:52;28.38;;;20.38;;
43678;SDS011;29279;50.858;4.392;2023-05-01T11:30:19;25.30;;;18.85;;
43678;SDS011;29279;50.858;4.392;2023-05-01T11:32:46;23.50;;;18.00;;
43678;SDS011;29279;50.858;4.392;2023-05-01T11:37:43;23.48;;;15.32;;
43678;SDS011;29279;50.858;4.392;2023-05-01T11:40:19;19.10;;;15.85;;
43678;SDS011;29279;50.858;4.392;2023-05-01T11:42:47;20.55;;;15.07;;
43678;SDS011;29279;50.858;4.392;2023-05-01T11:45:14;27.08;;;17.27;;
43678;SDS011;29279;50.858;4.392;2023-05-01T11:47:40;39.55;;;20.30;;
43678;SDS011;29279;50.858;4.392;2023-05-01T11:50:06;30.38;;;18.65;;
43678;SDS011;29279;50.858;4.392;2023-05-01T11:52:46;20.25;;;15.02;;
43678;SDS011;29279;50.858;4.392;2023-05-01T11:55:19;20.25;;;15.00;;
43678;SDS011;29279;50.858;4.392;2023-05-01T11:57:49;20.40;;;13.63;;
43678;SDS011;29279;50.858;4.392;2023-05-01T12:00:30;17.40;;;12.15;;
43678;SDS011;29279;50.858;4.392;2023-05-01T12:03:04;17.95;;;12.20;;
43678;SDS011;29279;50.858;4.392;2023-05-01T12:05:32;15.70;;;11.50;;
43678;SDS011;29279;50.858;4.392;2023-05-01T12:09:01;17.05;;;12.30;;
43678;SDS011;29279;50.858;4.392;2023-05-01T12:10:56;15.32;;;11.15;;
43678;SDS011;29279;50.858;4.392;2023-05-01T12:13:22;18.17;;;12.68;;
43678;SDS011;29279;50.858;4.392;2023-05-01T12:15:51;19.60;;;12.40;;
43678;SDS011;29279;50.858;4.392;2023-05-01T12:18:18;18.70;;;12.15;;
43678;SDS011;29279;50.858;4.392;2023-05-01T12:21:03;19.30;;;14.52;;
43678;SDS011;29279;50.858;4.392;2023-05-01T12:23:30;19.67;;;13.30;;
43678;SDS011;29279;50.858;4.392;2023-05-01T12:25:58;21.70;;;14.15;;
43678;SDS011;29279;50.858;4.392;2023-05-01T12:28:24;19.17;;;14.40;;
43678;SDS011;29279;50.858;4.392;2023-05-01T12:30:51;20.02;;;16.02;;
43678;SDS011;29279;50.858;4.392;2023-05-01T12:33:20;23.40;;;17.38;;
43678;SDS011;29279;50.858;4.392;2023-05-01T12:35:47;25.33;;;18.10;;
43678;SDS011;29279;50.858;4.392;2023-05-01T12:38:21;30.42;;;18.52;;
43678;SDS011;29279;50.858;4.392;2023-05-01T12:43:18;25.75;;;18.33;;
43678;SDS011;29279;50.858;4.392;2023-05-01T12:46:04;22.50;;;17.20;;
43678;SDS011;29279;50.858;4.392;2023-05-01T12:48:38;25.05;;;17.52;;
43678;SDS011;29279;50.858;4.392;2023-05-01T12:51:05;22.98;;;17.58;;
43678;SDS011;29279;50.858;4.392;2023-05-01T12:53:31;23.38;;;16.17;;
43678;SDS011;29279;50.858;4.392;2023-05-01T12:55:57;27.45;;;18.05;;
43678;SDS011;29279;50.858;4.392;2023-05-01T12:58:32;26.70;;;18.95;;
43678;SDS011;29279;50.858;4.392;2023-05-01T13:00:59;31.15;;;20.48;;
43678;SDS011;29279;50.858;4.392;2023-05-01T13:03:26;33.75;;;20.58;;
43678;SDS011;29279;50.858;4.392;2023-05-01T13:05:57;36.05;;;21.88;;
43678;SDS011;29279;50.858;4.392;2023-05-01T13:08:34;26.88;;;20.58;;
43678;SDS011;29279;50.858;4.392;2023-05-01T13:11:08;29.52;;;21.85;;
43678;SDS011;29279;50.858;4.392;2023-05-01T13:13:37;29.75;;;23.98;;
43678;SDS011;29279;50.858;4.392;2023-05-01T13:16:04;37.05;;;24.27;;
43678;SDS011;29279;50.858;4.392;2023-05-01T13:18:47;36.80;;;23.25;;
43678;SDS011;29279;50.858;4.392;2023-05-01T13:21:14;32.03;;;22.75;;
43678;SDS011;29279;50.858;4.392;2023-05-01T13:24:04;34.90;;;24.30;;
43678;SDS011;29279;50.858;4.392;2023-05-01T13:26:29;33.45;;;22.88;;
43678;SDS011;29279;50.858;4.392;2023-05-01T13:29:00;29.02;;;22.60;;
43678;SDS011;29279;50.858;4.392;2023-05-01T13:31:27;33.83;;;22.00;;
43678;SDS011;29279;50.858;4.392;2023-05-01T13:33:54;30.85;;;20.73;;
43678;SDS011;29279;50.858;4.392;2023-05-01T13:36:22;31.17;;;22.52;;
43678;SDS011;29279;50.858;4.392;2023-05-01T13:38:49;33.28;;;26.20;;
43678;SDS011;29279;50.858;4.392;2023-05-01T13:41:24;35.30;;;26.73;;
43678;SDS011;29279;50.858;4.392;2023-05-01T13:43:53;30.67;;;23.67;;
43678;SDS011;29279;50.858;4.392;2023-05-01T13:46:21;32.40;;;24.02;;
43678;SDS011;29279;50.858;4.392;2023-05-01T13:48:48;31.63;;;23.33;;
43678;SDS011;29279;50.858;4.392;2023-05-01T13:51:21;28.42;;;22.15;;
43678;SDS011;29279;50.858;4.392;2023-05-01T13:53:48;43.40;;;21.25;;
43678;SDS011;29279;50.858;4.392;2023-05-01T13:56:14;25.92;;;20.00;;
43678;SDS011;29279;50.858;4.392;2023-05-01T13:58:40;28.90;;;21.45;;
43678;SDS011;29279;50.858;4.392;2023-05-01T14:01:14;25.70;;;19.75;;
43678;SDS011;29279;50.858;4.392;2023-05-01T14:03:42;27.85;;;21.27;;
43678;SDS011;29279;50.858;4.392;2023-05-01T14:06:15;26.15;;;21.33;;
43678;SDS011;29279;50.858;4.392;2023-05-01T14:08:42;29.15;;;22.30;;
43678;SDS011;29279;50.858;4.392;2023-05-01T14:11:09;28.88;;;21.77;;
43678;SDS011;29279;50.858;4.392;2023-05-01T14:13:35;27.13;;;19.90;;
43678;SDS011;29279;50.858;4.392;2023-05-01T14:16:07;27.30;;;20.08;;
43678;SDS011;29279;50.858;4.392;2023-05-01T14:18:35;29.80;;;21.45;;
43678;SDS011;29279;50.858;4.392;2023-05-01T14:21:07;23.85;;;17.90;;
43678;SDS011;29279;50.858;4.392;2023-05-01T14:23:34;23.30;;;17.77;;
43678;SDS011;29279;50.858;4.392;2023-05-01T14:26:01;22.42;;;18.15;;
43678;SDS011;29279;50.858;4.392;2023-05-01T14:28:27;27.05;;;16.08;;
43678;SDS011;29279;50.858;4.392;2023-05-01T14:30:54;22.05;;;16.65;;
43678;SDS011;29279;50.858;4.392;2023-05-01T14:33:20;28.30;;;17.05;;
43678;SDS011;29279;50.858;4.392;2023-05-01T14:35:49;21.50;;;16.08;;
43678;SDS011;29279;50.858;4.392;2023-05-01T14:38:17;19.95;;;15.55;;
43678;SDS011;29279;50.858;4.392;2023-05-01T14:40:43;20.20;;;14.80;;
43678;SDS011;29279;50.858;4.392;2023-05-01T14:43:12;21.63;;;15.02;;
43678;SDS011;29279;50.858;4.392;2023-05-01T14:45:40;15.43;;;12.32;;
43678;SDS011;29279;50.858;4.392;2023-05-01T14:48:07;16.98;;;12.55;;
43678;SDS011;29279;50.858;4.392;2023-05-01T14:50:34;20.73;;;13.15;;
43678;SDS011;29279;50.858;4.392;2023-05-01T14:53:01;16.40;;;12.18;;
43678;SDS011;29279;50.858;4.392;2023-05-01T14:55:28;23.67;;;15.13;;
43678;SDS011;29279;50.858;4.392;2023-05-01T14:57:58;16.75;;;12.65;;
43678;SDS011;29279;50.858;4.392;2023-05-01T15:00:25;17.90;;;12.88;;
43678;SDS011;29279;50.858;4.392;2023-05-01T15:02:52;22.65;;;14.63;;
43678;SDS011;29279;50.858;4.392;2023-05-01T15:05:19;23.27;;;15.55;;
43678;SDS011;29279;50.858;4.392;2023-05-01T15:07:45;18.13;;;14.02;;
43678;SDS011;29279;50.858;4.392;2023-05-01T15:10:11;18.20;;;12.05;;
43678;SDS011;29279;50.858;4.392;2023-05-01T15:12:36;19.02;;;12.10;;